Terminal Aerodrome Forecast
Issued by NWS

Home | Current Version | Previous Version | Text Only | Print | Product List | Glossary On
Versions: 1 2 3 4 5 6 7 8 9 10 11 12
568
FTAK31 PAJN 222340
TAFAPG
TAF
PAPG 222340Z 2300/2324 08003KT P6SM FEW040 BKN070
     FM230600 VRB03KT P6SM VCSH SCT035 OVC060
     FM231200 00000KT P6SM BKN060
      AMD LTD TO CLD VIS AND WIND 2306/2315=

USA.gov is the U.S. government's official web portal to all federal, state and local government web resources and services.